Time;durP1;ratioP1;P1;durP2;ratioP2;P2;SDS_P1;SDS_P2;PMS_P1;PMS_P2;Temp;Humidity;BMP_temperature;BMP_pressure;BME280_temperature;BME280_humidity;BME280_pressure;Samples;Min_cycle;Max_cycle;Signal;HPM_P1;HPM_P2
2023/07/20 00:01:04;;;;;;;1.17;0.50;;;18.60;95.10;;;;;;5070221;28;20450;-68
2023/07/20 00:03:30;;;;;;;1.23;0.75;;;18.50;95.40;;;;;;5070479;28;20036;-68
2023/07/20 00:05:55;;;;;;;7.78;0.60;;;18.50;95.20;;;;;;5070073;28;20024;-69
2023/07/20 00:08:21;;;;;;;0.90;0.50;;;18.40;95.50;;;;;;5070893;28;20029;-68
2023/07/20 00:10:47;;;;;;;0.32;0.32;;;18.50;95.60;;;;;;5070186;28;20064;-70
2023/07/20 00:13:12;;;;;;;1.85;0.52;;;18.50;95.40;;;;;;5070496;28;20067;-69
2023/07/20 00:15:38;;;;;;;2.15;0.43;;;18.40;95.70;;;;;;5070336;28;20327;-69
2023/07/20 00:18:05;;;;;;;0.80;0.50;;;18.50;95.50;;;;;;5070342;28;20335;-68
2023/07/20 00:20:30;;;;;;;0.47;0.20;;;18.60;95.40;;;;;;5070565;28;20350;-68
2023/07/20 00:22:57;;;;;;;0.50;0.30;;;18.70;95.60;;;;;;5070269;28;20115;-69
2023/07/20 00:25:24;;;;;;;2.72;1.00;;;18.70;95.60;;;;;;5070454;28;20426;-68
2023/07/20 00:27:50;;;;;;;1.17;0.52;;;18.50;95.60;;;;;;5069875;28;20040;-68
2023/07/20 00:30:15;;;;;;;1.23;0.47;;;18.50;95.50;;;;;;5069843;28;20024;-69
2023/07/20 00:32:42;;;;;;;1.90;1.38;;;18.50;95.80;;;;;;5069278;28;20537;-69
2023/07/20 00:35:09;;;;;;;0.88;0.50;;;18.50;95.70;;;;;;5070078;28;20029;-69
2023/07/20 00:37:35;;;;;;;0.63;0.50;;;18.60;95.60;;;;;;5070286;28;20447;-68
2023/07/20 00:40:00;;;;;;;1.55;0.50;;;18.60;95.60;;;;;;5069850;28;20025;-68
2023/07/20 00:42:26;;;;;;;0.82;0.57;;;18.60;95.50;;;;;;5069765;28;20033;-69
2023/07/20 00:44:52;;;;;;;1.30;0.63;;;18.60;95.60;;;;;;5068870;28;20435;-69
2023/07/20 00:47:17;;;;;;;3.65;0.80;;;18.60;95.60;;;;;;5069175;28;20032;-68
2023/07/20 00:49:43;;;;;;;1.60;1.13;;;18.60;95.80;;;;;;5069943;28;20466;-68
2023/07/20 00:52:13;;;;;;;0.75;0.60;;;18.50;96.00;;;;;;5069883;28;20490;-69
2023/07/20 00:54:40;;;;;;;0.68;0.68;;;18.40;96.20;;;;;;5073768;28;20037;-69
2023/07/20 00:57:07;;;;;;;1.92;0.70;;;18.40;96.20;;;;;;5072766;28;20040;-68
2023/07/20 00:59:35;;;;;;;0.60;0.50;;;18.30;96.20;;;;;;5074111;28;20107;-69
2023/07/20 01:02:02;;;;;;;0.63;0.63;;;18.40;96.00;;;;;;5073789;28;20425;-68
2023/07/20 01:04:28;;;;;;;1.65;0.60;;;18.40;96.10;;;;;;5073645;28;20033;-68
2023/07/20 01:07:21;;;;;;;3.83;0.77;;;18.50;95.90;;;;;;5072539;28;20055;-69
2023/07/20 01:10:12;;;;;;;1.95;0.80;;;18.50;96.00;;;;;;5073818;28;20408;-68
2023/07/20 01:12:41;;;;;;;4.00;1.23;;;18.50;96.10;;;;;;5077964;28;20032;-68
2023/07/20 01:15:08;;;;;;;2.35;0.85;;;18.50;95.90;;;;;;5073594;28;20094;-68
2023/07/20 01:17:34;;;;;;;3.03;0.90;;;18.50;96.00;;;;;;5073840;28;20025;-68
2023/07/20 01:20:00;;;;;;;4.57;0.75;;;18.30;96.10;;;;;;5073508;28;20463;-68
2023/07/20 01:22:47;;;;;;;1.65;0.60;;;18.40;96.20;;;;;;5073492;28;20033;-69
2023/07/20 01:25:28;;;;;;;1.83;0.80;;;18.30;96.30;;;;;;5073328;28;20455;-68
2023/07/20 01:28:23;;;;;;;4.65;0.90;;;18.30;96.50;;;;;;5073255;28;20040;-69
2023/07/20 01:31:25;;;;;;;1.27;0.70;;;18.30;96.60;;;;;;5072895;28;20060;-69
2023/07/20 01:33:54;;;;;;;1.55;0.75;;;18.30;96.60;;;;;;5073104;28;20037;-69
2023/07/20 01:36:23;;;;;;;3.40;1.00;;;18.30;96.70;;;;;;5085960;28;20032;-68
2023/07/20 01:38:49;;;;;;;2.33;0.77;;;18.30;96.60;;;;;;5093230;28;20362;-69
2023/07/20 01:41:16;;;;;;;1.38;0.80;;;18.30;96.80;;;;;;5093576;28;20024;-69
2023/07/20 01:43:42;;;;;;;1.15;0.90;;;18.30;96.60;;;;;;5092965;28;20036;-68
2023/07/20 01:46:08;;;;;;;2.58;1.17;;;18.30;96.80;;;;;;5093167;28;20314;-69
2023/07/20 01:48:34;;;;;;;3.05;1.05;;;18.20;97.00;;;;;;5093329;28;20476;-68
2023/07/20 01:50:59;;;;;;;1.08;0.70;;;18.20;97.00;;;;;;5092892;28;20042;-68
2023/07/20 01:53:25;;;;;;;2.63;1.30;;;18.20;96.90;;;;;;5093843;28;20430;-69
2023/07/20 01:55:54;;;;;;;2.80;0.88;;;18.30;96.80;;;;;;5092983;28;20036;-68
2023/07/20 01:58:19;;;;;;;3.17;0.70;;;18.30;96.90;;;;;;5091683;28;20132;-68
2023/07/20 02:00:45;;;;;;;3.28;0.70;;;18.30;96.80;;;;;;5092790;28;20525;-68
2023/07/20 02:03:11;;;;;;;1.60;1.00;;;18.30;96.60;;;;;;5092271;28;20521;-69
2023/07/20 02:05:38;;;;;;;2.50;0.95;;;18.40;96.60;;;;;;5093016;28;20417;-68
2023/07/20 02:08:04;;;;;;;2.05;0.70;;;18.40;96.80;;;;;;5092747;28;20083;-69
2023/07/20 02:10:29;;;;;;;2.47;0.80;;;18.40;96.90;;;;;;5092689;28;20032;-68
2023/07/20 02:12:55;;;;;;;1.05;0.82;;;18.30;96.90;;;;;;5092567;28;20032;-68
2023/07/20 02:15:21;;;;;;;0.85;0.80;;;18.30;97.00;;;;;;5091455;28;20119;-67
2023/07/20 02:17:46;;;;;;;1.48;1.00;;;18.30;97.00;;;;;;5092750;28;20046;-68
2023/07/20 02:20:12;;;;;;;3.22;1.27;;;18.30;96.90;;;;;;5091712;28;20065;-67
2023/07/20 02:22:39;;;;;;;2.22;0.93;;;18.30;96.70;;;;;;5091269;28;20067;-69
2023/07/20 02:25:06;;;;;;;1.45;1.00;;;18.30;96.80;;;;;;5092374;28;20039;-68
2023/07/20 02:27:35;;;;;;;1.40;0.93;;;18.40;96.70;;;;;;5092661;28;20474;-69
2023/07/20 02:30:02;;;;;;;1.27;1.17;;;18.30;97.00;;;;;;5092234;28;20039;-68
2023/07/20 02:32:28;;;;;;;3.17;0.98;;;18.10;97.10;;;;;;5092488;28;20048;-68
2023/07/20 02:34:53;;;;;;;0.73;0.70;;;18.10;97.00;;;;;;5092212;28;20031;-69
2023/07/20 02:37:19;;;;;;;1.02;0.88;;;18.20;97.00;;;;;;5092249;28;20362;-67
2023/07/20 02:39:45;;;;;;;4.47;1.13;;;18.20;97.10;;;;;;5092246;28;20042;-69
2023/07/20 02:42:10;;;;;;;2.45;1.20;;;18.10;97.10;;;;;;5091941;28;20500;-68
2023/07/20 02:44:36;;;;;;;2.95;1.10;;;18.20;97.00;;;;;;5092469;28;20358;-69
2023/07/20 02:47:02;;;;;;;2.17;1.00;;;18.10;97.10;;;;;;5091910;28;20032;-68
2023/07/20 02:49:28;;;;;;;2.88;1.60;;;18.00;97.30;;;;;;5091829;28;20028;-68
2023/07/20 02:51:54;;;;;;;0.77;0.70;;;18.10;97.40;;;;;;5091908;28;20047;-68
2023/07/20 02:54:20;;;;;;;2.45;1.05;;;18.00;97.40;;;;;;5091685;28;20046;-68
2023/07/20 02:56:46;;;;;;;1.38;1.27;;;18.10;97.40;;;;;;5091789;28;20498;-68
2023/07/20 02:59:11;;;;;;;2.38;1.08;;;18.10;97.30;;;;;;5092095;28;20032;-69
2023/07/20 03:01:37;;;;;;;1.00;0.70;;;18.10;97.30;;;;;;5091629;28;20029;-68
2023/07/20 03:04:03;;;;;;;2.35;1.00;;;18.20;97.10;;;;;;5091700;28;20051;-68
2023/07/20 03:06:29;;;;;;;2.38;0.70;;;18.20;97.20;;;;;;5091478;28;20419;-68
2023/07/20 03:08:55;;;;;;;1.42;0.65;;;18.10;97.40;;;;;;5091503;28;20024;-68
2023/07/20 03:11:20;;;;;;;3.13;1.20;;;18.10;97.30;;;;;;5092032;28;20139;-68
2023/07/20 03:13:47;;;;;;;2.95;1.00;;;18.10;97.40;;;;;;5091565;28;20028;-67
2023/07/20 03:16:15;;;;;;;1.77;0.88;;;18.10;97.40;;;;;;5090345;28;20152;-68
2023/07/20 03:18:41;;;;;;;1.75;0.68;;;18.10;97.40;;;;;;5091231;28;20061;-68
2023/07/20 03:21:08;;;;;;;0.77;0.52;;;18.10;97.60;;;;;;5091306;28;20032;-69
2023/07/20 03:23:34;;;;;;;1.30;0.93;;;18.10;97.70;;;;;;5091682;28;20070;-68
2023/07/20 03:26:00;;;;;;;0.75;0.70;;;18.10;97.50;;;;;;5091343;28;20047;-68
2023/07/20 03:28:26;;;;;;;1.60;0.80;;;18.20;97.70;;;;;;5091170;28;20024;-68
2023/07/20 03:30:58;;;;;;;3.88;1.75;;;18.20;97.50;;;;;;5090913;28;20472;-68
2023/07/20 03:33:29;;;;;;;3.65;0.93;;;18.20;97.40;;;;;;5091417;28;20027;-67
2023/07/20 03:35:55;;;;;;;3.33;1.02;;;18.20;97.50;;;;;;5089939;28;20468;-68
2023/07/20 03:38:21;;;;;;;4.60;1.15;;;18.20;97.60;;;;;;5091390;28;20111;-69
2023/07/20 03:40:58;;;;;;;2.80;0.95;;;18.10;97.50;;;;;;5090792;28;20032;-67
2023/07/20 03:43:25;;;;;;;1.75;0.93;;;18.20;97.30;;;;;;5089579;28;20061;-68
2023/07/20 03:45:52;;;;;;;2.65;1.15;;;18.30;97.10;;;;;;5090762;28;20032;-67
2023/07/20 03:48:24;;;;;;;1.10;1.00;;;18.20;97.40;;;;;;5089587;28;20024;-68
2023/07/20 03:50:52;;;;;;;2.78;1.02;;;18.20;97.20;;;;;;5090642;28;20020;-68
2023/07/20 03:53:18;;;;;;;1.15;0.70;;;18.30;97.30;;;;;;5090103;28;20378;-69
2023/07/20 03:55:51;;;;;;;2.30;0.60;;;18.20;97.30;;;;;;5090586;28;20024;-68
2023/07/20 03:58:17;;;;;;;1.10;0.75;;;18.20;97.10;;;;;;5090582;28;20411;-69
2023/07/20 04:00:48;;;;;;;1.10;0.95;;;18.20;96.90;;;;;;5090484;28;20039;-69
2023/07/20 04:03:14;;;;;;;1.80;1.00;;;18.30;97.00;;;;;;5090537;28;20024;-69
2023/07/20 04:05:40;;;;;;;1.75;0.95;;;18.40;96.90;;;;;;5090723;28;20461;-69
2023/07/20 04:08:06;;;;;;;2.95;1.13;;;18.30;97.00;;;;;;5090478;28;20032;-69
2023/07/20 04:10:31;;;;;;;4.38;1.00;;;18.30;97.00;;;;;;5089221;28;20551;-68
2023/07/20 04:12:57;;;;;;;2.53;0.98;;;18.30;96.90;;;;;;5090382;28;20487;-70
2023/07/20 04:15:23;;;;;;;1.80;0.80;;;18.30;96.90;;;;;;5090457;28;20054;-70
2023/07/20 04:17:49;;;;;;;5.85;1.27;;;18.20;97.10;;;;;;5090524;28;20028;-69
2023/07/20 04:20:14;;;;;;;3.85;1.00;;;18.10;97.70;;;;;;5089652;28;20361;-70
2023/07/20 04:22:40;;;;;;;2.60;1.20;;;18.10;98.00;;;;;;5089084;28;20036;-68
2023/07/20 04:25:06;;;;;;;1.75;0.98;;;18.00;98.30;;;;;;5090439;28;20032;-69
2023/07/20 04:27:32;;;;;;;2.95;1.20;;;17.90;98.90;;;;;;5090111;28;20036;-69
2023/07/20 04:30:01;;;;;;;3.38;1.30;;;17.90;99.10;;;;;;5090124;28;20336;-69
2023/07/20 04:32:27;;;;;;;1.17;1.08;;;18.00;99.20;;;;;;5090364;28;20051;-68
2023/07/20 04:34:53;;;;;;;2.35;1.05;;;18.00;99.30;;;;;;5089016;28;20066;-68
2023/07/20 04:37:19;;;;;;;1.98;1.13;;;18.00;99.50;;;;;;5090249;28;20060;-67
2023/07/20 04:39:44;;;;;;;2.67;0.90;;;17.90;99.40;;;;;;5090045;28;20028;-68
2023/07/20 04:42:10;;;;;;;3.17;0.82;;;17.70;99.90;;;;;;5089980;28;20420;-68
2023/07/20 04:44:35;;;;;;;2.35;1.02;;;17.70;99.60;;;;;;5091077;28;20020;-68
2023/07/20 04:47:02;;;;;;;3.33;1.00;;;17.80;99.60;;;;;;5090048;28;20039;-67
2023/07/20 04:49:28;;;;;;;2.05;0.85;;;17.70;99.80;;;;;;5088761;28;20036;-68
2023/07/20 04:51:54;;;;;;;1.52;1.20;;;17.80;99.80;;;;;;5089822;28;20028;-67
2023/07/20 04:54:20;;;;;;;1.02;0.75;;;17.80;99.80;;;;;;5088976;28;20056;-68
2023/07/20 04:56:45;;;;;;;2.30;0.93;;;17.80;99.90;;;;;;5088971;28;20063;-69
2023/07/20 04:59:11;;;;;;;3.50;1.20;;;17.70;99.90;;;;;;5090399;28;20361;-69
2023/07/20 05:01:37;;;;;;;1.80;1.10;;;17.70;99.90;;;;;;5088646;28;20476;-68
2023/07/20 05:04:02;;;;;;;1.40;1.00;;;17.70;99.90;;;;;;5089635;28;20295;-68
2023/07/20 05:06:28;;;;;;;2.72;1.30;;;17.70;99.90;;;;;;5089866;28;20032;-69
2023/07/20 05:08:54;;;;;;;2.35;1.50;;;17.70;99.90;;;;;;5089623;28;20059;-68
2023/07/20 05:11:20;;;;;;;1.98;1.73;;;17.80;99.90;;;;;;5090080;28;20034;-69
2023/07/20 05:13:45;;;;;;;5.22;1.98;;;17.80;99.90;;;;;;5088624;28;20133;-68
2023/07/20 05:16:11;;;;;;;3.50;2.30;;;17.90;99.90;;;;;;5089735;28;20024;-68
2023/07/20 05:18:37;;;;;;;12.60;3.30;;;17.70;99.90;;;;;;5089709;28;20196;-67
2023/07/20 05:21:02;;;;;;;6.53;3.33;;;17.70;99.90;;;;;;5089778;28;20032;-67
2023/07/20 05:23:28;;;;;;;3.65;1.92;;;17.60;99.90;;;;;;5089935;28;20381;-67
2023/07/20 05:25:56;;;;;;;2.40;2.08;;;17.60;99.90;;;;;;5089736;28;20129;-68
2023/07/20 05:28:22;;;;;;;2.80;1.77;;;17.50;99.90;;;;;;5089508;28;20035;-67
2023/07/20 05:30:48;;;;;;;1.95;1.70;;;17.50;99.90;;;;;;5089271;28;20294;-67
2023/07/20 05:33:13;;;;;;;2.33;2.10;;;17.30;99.90;;;;;;5089692;28;20043;-68
2023/07/20 05:35:40;;;;;;;3.05;2.00;;;17.30;99.90;;;;;;5089778;28;20472;-67
2023/07/20 05:38:06;;;;;;;3.45;2.10;;;17.50;99.90;;;;;;5089389;28;20442;-68
2023/07/20 05:40:32;;;;;;;2.20;1.90;;;17.40;99.90;;;;;;5093064;28;20100;-68
2023/07/20 05:42:58;;;;;;;4.28;2.55;;;17.50;99.90;;;;;;5092842;28;20073;-66
2023/07/20 05:45:24;;;;;;;3.35;2.47;;;17.60;99.90;;;;;;5091864;28;20024;-67
2023/07/20 05:47:50;;;;;;;4.00;1.92;;;17.60;99.90;;;;;;5092944;28;20030;-68
2023/07/20 05:50:15;;;;;;;3.92;1.90;;;17.70;99.90;;;;;;5093392;28;20312;-69
2023/07/20 05:52:41;;;;;;;2.70;1.88;;;17.60;99.90;;;;;;5092892;28;20040;-68
2023/07/20 05:55:07;;;;;;;3.08;1.88;;;17.60;99.90;;;;;;5093195;28;20047;-67
2023/07/20 05:57:33;;;;;;;5.13;2.00;;;17.60;99.90;;;;;;5092934;28;20032;-68
2023/07/20 05:59:59;;;;;;;4.97;1.85;;;17.60;99.90;;;;;;5092946;28;20354;-70
2023/07/20 06:02:25;;;;;;;2.72;1.80;;;17.60;99.90;;;;;;5093129;28;20016;-68
2023/07/20 06:04:50;;;;;;;6.45;1.98;;;17.70;99.90;;;;;;5083876;28;20053;-67
2023/07/20 06:07:16;;;;;;;2.30;1.67;;;17.70;99.90;;;;;;5052547;28;20487;-68
2023/07/20 06:09:41;;;;;;;3.50;1.95;;;17.70;99.90;;;;;;5052635;28;20048;-70
2023/07/20 06:12:08;;;;;;;2.53;1.58;;;17.70;99.90;;;;;;5052188;28;20400;-68
2023/07/20 06:14:34;;;;;;;3.22;1.80;;;17.80;99.90;;;;;;5052799;28;20027;-68
2023/07/20 06:17:00;;;;;;;4.20;1.75;;;17.90;99.90;;;;;;5052143;28;20458;-69
2023/07/20 06:19:26;;;;;;;3.03;1.60;;;17.90;99.90;;;;;;5052171;28;20033;-70
2023/07/20 06:21:52;;;;;;;3.92;1.80;;;17.90;99.90;;;;;;5052200;28;20041;-68
2023/07/20 06:24:18;;;;;;;4.07;1.67;;;17.90;99.90;;;;;;5052272;28;20029;-69
2023/07/20 06:26:43;;;;;;;2.22;1.75;;;18.00;99.90;;;;;;5052036;28;20029;-68
2023/07/20 06:29:10;;;;;;;3.80;1.52;;;18.00;99.90;;;;;;5052597;28;20155;-69
2023/07/20 06:31:36;;;;;;;4.47;1.98;;;18.00;99.90;;;;;;5051721;28;20132;-70
2023/07/20 06:34:03;;;;;;;2.58;2.13;;;18.00;99.90;;;;;;5050697;28;20029;-68
2023/07/20 06:36:28;;;;;;;4.43;2.10;;;18.00;99.90;;;;;;5051888;28;20159;-71
2023/07/20 06:38:55;;;;;;;4.25;2.58;;;18.00;99.90;;;;;;5051805;28;20104;-69
2023/07/20 06:41:20;;;;;;;4.40;2.53;;;18.10;99.90;;;;;;5052478;28;20025;-68
2023/07/20 06:43:47;;;;;;;3.53;2.08;;;18.00;99.90;;;;;;5050718;28;20367;-68
2023/07/20 06:46:12;;;;;;;4.43;2.38;;;17.90;99.90;;;;;;5051619;28;20033;-71
2023/07/20 06:48:38;;;;;;;2.70;2.10;;;18.00;99.90;;;;;;5051530;28;20426;-68
2023/07/20 06:51:03;;;;;;;4.97;2.28;;;17.90;99.90;;;;;;5051618;28;20064;-68
2023/07/20 06:53:30;;;;;;;4.13;2.15;;;17.90;99.90;;;;;;5051901;28;20383;-69
2023/07/20 06:55:58;;;;;;;2.47;2.10;;;17.90;99.90;;;;;;5051558;28;20025;-69
2023/07/20 06:58:25;;;;;;;5.57;2.00;;;18.10;99.90;;;;;;5051481;28;20099;-68
2023/07/20 07:00:51;;;;;;;6.93;2.40;;;18.20;99.90;;;;;;5050253;28;20036;-68
2023/07/20 07:03:17;;;;;;;5.63;2.42;;;18.30;99.90;;;;;;5050422;28;20115;-69
2023/07/20 07:05:45;;;;;;;5.55;2.10;;;18.20;99.90;;;;;;5062292;28;20039;-68
2023/07/20 07:08:11;;;;;;;3.83;2.22;;;18.10;99.90;;;;;;5071651;28;20044;-68
2023/07/20 07:10:36;;;;;;;5.57;1.88;;;18.40;99.90;;;;;;5072376;28;20342;-70
2023/07/20 07:13:03;;;;;;;3.45;1.98;;;18.50;99.70;;;;;;5070770;28;20040;-69
2023/07/20 07:15:29;;;;;;;4.75;1.85;;;18.60;99.40;;;;;;5072376;28;20367;-69
2023/07/20 07:17:55;;;;;;;5.88;1.60;;;18.60;99.30;;;;;;5070886;28;20054;-68
2023/07/20 07:20:20;;;;;;;3.92;1.70;;;18.70;99.20;;;;;;5072129;28;20024;-69
2023/07/20 07:22:47;;;;;;;2.83;1.50;;;18.60;98.80;;;;;;5071893;28;20029;-68
2023/07/20 07:25:13;;;;;;;2.53;2.08;;;18.60;98.80;;;;;;5072120;28;20033;-70
2023/07/20 07:27:38;;;;;;;3.75;1.80;;;18.70;98.80;;;;;;5070722;28;20094;-69
2023/07/20 07:30:05;;;;;;;4.30;1.98;;;18.80;98.70;;;;;;5070735;28;20028;-69
2023/07/20 07:32:30;;;;;;;2.75;1.77;;;19.00;98.60;;;;;;5072013;28;20044;-69
2023/07/20 07:34:58;;;;;;;2.63;1.90;;;18.80;98.20;;;;;;5071457;28;20089;-70
2023/07/20 07:37:24;;;;;;;3.08;1.90;;;18.90;98.40;;;;;;5071547;28;20417;-68
2023/07/20 07:39:50;;;;;;;6.35;2.55;;;19.10;98.00;;;;;;5071649;28;20036;-69
2023/07/20 07:42:15;;;;;;;3.75;2.00;;;19.10;97.70;;;;;;5054009;28;20037;-71
2023/07/20 07:44:41;;;;;;;3.78;2.45;;;19.00;97.80;;;;;;5072017;28;20032;-69
2023/07/20 07:47:07;;;;;;;3.05;2.10;;;19.00;97.90;;;;;;5071681;28;20116;-68
2023/07/20 07:49:33;;;;;;;3.33;2.63;;;19.20;97.50;;;;;;5071214;28;20024;-68
2023/07/20 07:51:58;;;;;;;4.03;3.08;;;19.20;97.10;;;;;;5071186;28;20036;-69
2023/07/20 07:54:24;;;;;;;3.92;2.08;;;19.30;96.80;;;;;;5071097;28;20028;-68
2023/07/20 07:56:51;;;;;;;5.40;2.88;;;19.40;96.60;;;;;;5071216;28;20026;-68
2023/07/20 07:59:17;;;;;;;3.72;2.60;;;19.40;96.70;;;;;;5072010;28;20044;-69
2023/07/20 08:01:42;;;;;;;3.70;1.70;;;19.40;97.20;;;;;;5070907;28;20420;-68
2023/07/20 08:04:08;;;;;;;5.18;1.80;;;19.40;96.90;;;;;;5070881;28;20049;-68
2023/07/20 08:06:34;;;;;;;1.40;1.25;;;19.40;96.50;;;;;;5071274;28;20453;-69
2023/07/20 08:08:59;;;;;;;1.48;1.20;;;19.40;96.10;;;;;;5071091;28;20033;-68
2023/07/20 08:11:25;;;;;;;2.28;1.35;;;19.40;95.20;;;;;;5071341;28;20090;-68
2023/07/20 08:13:51;;;;;;;4.43;1.60;;;19.40;94.70;;;;;;5071194;28;20140;-69
2023/07/20 08:16:16;;;;;;;2.42;1.55;;;19.70;94.80;;;;;;5071239;28;20037;-68
2023/07/20 08:18:43;;;;;;;16.42;8.15;;;19.90;94.40;;;;;;5070839;28;20032;-67
2023/07/20 08:21:09;;;;;;;2.10;1.13;;;20.30;94.20;;;;;;5071553;28;20120;-68
2023/07/20 08:23:34;;;;;;;1.90;0.88;;;20.50;93.50;;;;;;5071542;28;20052;-67
2023/07/20 08:26:01;;;;;;;2.67;1.00;;;20.40;93.10;;;;;;5071383;28;20029;-68
2023/07/20 08:28:26;;;;;;;3.15;0.85;;;20.40;93.00;;;;;;5071591;28;20567;-67
2023/07/20 08:30:52;;;;;;;2.22;1.60;;;20.60;92.40;;;;;;5070995;28;20153;-68
2023/07/20 08:33:23;;;;;;;11.93;6.90;;;20.70;91.90;;;;;;5071003;28;20071;-69
2023/07/20 08:35:49;;;;;;;3.33;1.63;;;21.10;92.40;;;;;;5071629;28;20017;-69
2023/07/20 08:38:14;;;;;;;1.35;0.93;;;22.00;90.90;;;;;;5072432;28;20327;-68
2023/07/20 08:40:42;;;;;;;1.38;1.20;;;22.50;90.50;;;;;;5070516;28;20028;-69
2023/07/20 08:43:10;;;;;;;1.48;0.70;;;23.20;89.50;;;;;;5071881;28;20055;-69
2023/07/20 08:45:38;;;;;;;0.70;0.70;;;24.20;90.20;;;;;;5071333;28;20025;-68
2023/07/20 08:48:06;;;;;;;3.38;1.25;;;25.20;90.00;;;;;;5071464;28;20344;-68
2023/07/20 08:50:32;;;;;;;;;;;27.00;84.60;;;;;;5073170;28;20074;-69
2023/07/20 08:52:58;;;;;;;0.50;0.50;;;27.80;77.50;;;;;;5071142;28;20359;-69
2023/07/20 08:55:28;;;;;;;4.10;0.85;;;27.30;73.10;;;;;;5071441;28;20020;-70
2023/07/20 08:57:55;;;;;;;2.88;0.50;;;27.00;72.60;;;;;;5071984;28;20040;-69
2023/07/20 09:00:22;;;;;;;2.88;0.70;;;25.90;72.60;;;;;;5071772;28;20033;-69
2023/07/20 09:02:51;;;;;;;2.92;0.75;;;25.50;74.40;;;;;;5071119;28;20461;-69
2023/07/20 09:05:18;;;;;;;1.30;0.60;;;25.50;74.40;;;;;;5071852;28;20043;-70
2023/07/20 09:07:44;;;;;;;9.73;1.08;;;25.60;74.00;;;;;;5070855;28;20033;-69
2023/07/20 09:10:10;;;;;;;5.07;0.80;;;25.40;74.20;;;;;;5070658;28;20123;-69
2023/07/20 09:12:40;;;;;;;2.35;0.80;;;25.10;75.20;;;;;;5070598;28;20378;-69
2023/07/20 09:15:07;;;;;;;4.43;0.80;;;25.00;77.00;;;;;;5074060;28;20029;-68
2023/07/20 09:17:33;;;;;;;2.40;1.00;;;25.50;75.70;;;;;;5074774;28;20025;-69
2023/07/20 09:20:05;;;;;;;2.45;0.82;;;26.30;74.70;;;;;;5074474;28;20347;-70
2023/07/20 09:22:31;;;;;;;1.98;0.85;;;26.80;72.60;;;;;;5074514;28;20080;-69
2023/07/20 09:24:58;;;;;;;1.95;0.45;;;26.90;71.10;;;;;;5074193;28;20036;-69
2023/07/20 09:27:46;;;;;;;1.23;0.50;;;27.50;68.20;;;;;;5073062;28;20031;-69
2023/07/20 09:30:13;;;;;;;2.22;0.73;;;27.70;66.30;;;;;;5072866;28;20028;-70
2023/07/20 09:32:50;;;;;;;1.17;0.50;;;29.00;64.40;;;;;;5074001;28;20482;-69
2023/07/20 09:35:21;;;;;;;1.20;0.43;;;28.90;63.50;;;;;;5072881;28;20040;-69
2023/07/20 09:38:00;;;;;;;3.60;0.63;;;29.10;62.50;;;;;;5073881;28;20034;-69
2023/07/20 09:40:29;;;;;;;3.38;0.90;;;29.00;62.00;;;;;;5073950;28;20033;-69
2023/07/20 09:43:03;;;;;;;1.48;0.50;;;28.70;60.20;;;;;;5073838;28;20040;-69
2023/07/20 09:45:42;;;;;;;0.77;0.55;;;29.00;60.80;;;;;;5073985;28;20032;-69
2023/07/20 09:48:09;;;;;;;2.80;0.80;;;29.30;59.80;;;;;;5073507;28;20021;-68
2023/07/20 09:50:41;;;;;;;2.07;0.70;;;28.50;61.50;;;;;;5074295;28;20458;-69
2023/07/20 09:53:11;;;;;;;1.10;0.80;;;27.30;61.50;;;;;;5073681;28;20060;-68
2023/07/20 09:55:38;;;;;;;1.42;0.68;;;26.50;62.00;;;;;;5073581;28;20032;-69
2023/07/20 09:58:06;;;;;;;1.58;0.60;;;26.60;62.80;;;;;;5073723;28;20120;-69
2023/07/20 10:00:33;;;;;;;1.38;0.50;;;26.60;62.90;;;;;;5072468;28;20124;-70
2023/07/20 10:03:02;;;;;;;0.60;0.38;;;25.90;61.70;;;;;;5073215;28;20032;-69
2023/07/20 10:05:33;;;;;;;1.40;0.50;;;25.90;62.50;;;;;;5073714;28;20037;-67
2023/07/20 10:08:01;;;;;;;2.15;0.60;;;25.80;63.10;;;;;;5073439;28;20533;-69
2023/07/20 10:10:27;;;;;;;3.55;0.88;;;25.90;63.80;;;;;;5073493;28;20028;-68
2023/07/20 10:12:53;;;;;;;1.73;0.60;;;25.80;63.30;;;;;;5073250;28;20044;-68
2023/07/20 10:15:37;;;;;;;3.42;0.57;;;25.20;62.50;;;;;;5073258;28;20104;-69
2023/07/20 10:18:15;;;;;;;2.45;0.60;;;24.70;63.70;;;;;;5072932;28;20035;-68
2023/07/20 10:20:41;;;;;;;1.52;0.98;;;25.00;64.50;;;;;;5073535;28;20082;-69
2023/07/20 10:23:08;;;;;;;7.40;3.97;;;24.80;64.80;;;;;;5073065;28;20035;-68
2023/07/20 10:25:37;;;;;;;7.30;2.20;;;25.20;65.50;;;;;;5072682;28;20063;-69
2023/07/20 10:28:08;;;;;;;1.30;0.95;;;25.20;65.00;;;;;;5072952;28;20044;-69
2023/07/20 10:30:38;;;;;;;2.20;0.68;;;25.10;65.10;;;;;;5073223;28;20083;-67
2023/07/20 10:33:05;;;;;;;2.05;0.80;;;24.70;65.30;;;;;;5072677;28;20362;-69
2023/07/20 10:35:49;;;;;;;2.25;0.75;;;24.40;65.70;;;;;;5073500;28;20107;-68
2023/07/20 10:38:15;;;;;;;2.38;0.70;;;24.30;66.40;;;;;;5068258;28;20041;-68
2023/07/20 10:40:41;;;;;;;1.70;1.02;;;24.30;67.20;;;;;;5052492;28;20040;-69
2023/07/20 10:43:09;;;;;;;2.80;0.60;;;24.20;66.90;;;;;;5068388;28;20033;-68
2023/07/20 10:45:42;;;;;;;;;;;24.00;67.00;;;;;;5053236;28;20091;-68
2023/07/20 10:48:17;;;;;;;2.58;0.40;;;23.70;67.40;;;;;;5052439;28;19917;-68
2023/07/20 10:50:43;;;;;;;0.60;0.50;;;23.70;67.50;;;;;;5052600;28;20028;-69
2023/07/20 10:53:17;;;;;;;3.47;1.20;;;23.90;67.80;;;;;;5053016;28;20060;-69
2023/07/20 10:55:43;;;;;;;2.25;0.65;;;24.10;67.80;;;;;;5051275;28;20049;-69
2023/07/20 10:58:11;;;;;;;5.30;0.60;;;24.00;67.10;;;;;;5052336;28;20052;-67
2023/07/20 11:00:37;;;;;;;;;;;24.00;66.60;;;;;;5068415;28;20032;-67
2023/07/20 11:03:05;;;;;;;1.05;0.55;;;24.40;65.80;;;;;;5052093;28;19916;-68
2023/07/20 11:05:37;;;;;;;1.40;0.80;;;24.40;65.00;;;;;;5052682;28;20021;-68
2023/07/20 11:08:05;;;;;;;2.53;0.50;;;24.80;65.20;;;;;;5052559;28;20022;-69
2023/07/20 11:10:31;;;;;;;9.68;6.25;;;24.70;65.10;;;;;;5051167;28;20248;-68
2023/07/20 11:13:16;;;;;;;1.25;0.90;;;25.00;65.10;;;;;;5052143;28;20041;-69
2023/07/20 11:16:05;;;;;;;2.55;0.65;;;25.00;65.10;;;;;;5051055;28;20131;-70
2023/07/20 11:18:33;;;;;;;1.85;0.50;;;24.70;64.50;;;;;;5048851;28;20034;-69
2023/07/20 11:20:59;;;;;;;3.28;0.93;;;24.60;65.00;;;;;;5050927;28;20040;-68
2023/07/20 11:23:26;;;;;;;1.27;0.60;;;24.50;65.20;;;;;;5067990;28;20024;-69
2023/07/20 11:25:51;;;;;;;1.98;0.70;;;24.40;64.40;;;;;;5052102;28;20124;-68
2023/07/20 11:28:17;;;;;;;2.80;0.65;;;24.40;64.50;;;;;;5051951;28;20124;-68
2023/07/20 11:30:42;;;;;;;0.98;0.57;;;24.40;65.60;;;;;;5051456;28;20073;-68
2023/07/20 11:33:09;;;;;;;0.77;0.50;;;24.20;64.10;;;;;;5051806;28;20037;-68
2023/07/20 11:35:48;;;;;;;1.83;0.60;;;23.80;63.30;;;;;;5051168;28;20025;-67
2023/07/20 11:38:14;;;;;;;2.33;0.60;;;23.80;65.60;;;;;;5051443;28;20070;-68
2023/07/20 11:40:44;;;;;;;3.45;1.17;;;24.00;66.30;;;;;;5051933;28;20375;-67
2023/07/20 11:43:12;;;;;;;1.25;0.80;;;24.20;65.70;;;;;;5050445;28;20029;-68
2023/07/20 11:45:38;;;;;;;3.30;0.80;;;24.20;65.60;;;;;;5051329;28;20029;-68
2023/07/20 11:48:04;;;;;;;1.38;0.65;;;24.40;66.30;;;;;;5051074;28;20448;-71
2023/07/20 11:50:30;;;;;;;2.03;0.35;;;24.50;66.10;;;;;;5067407;28;20458;-68
2023/07/20 11:52:57;;;;;;;3.35;0.85;;;24.70;65.60;;;;;;5051380;28;20041;-69
2023/07/20 11:55:23;;;;;;;2.40;0.90;;;24.30;65.20;;;;;;5050174;28;20253;-68
2023/07/20 11:58:05;;;;;;;3.78;1.85;;;24.30;65.10;;;;;;5051492;28;20036;-69
2023/07/20 12:00:32;;;;;;;9.82;4.57;;;24.40;64.80;;;;;;5051171;28;20297;-68
2023/07/20 12:02:58;;;;;;;2.85;1.17;;;24.50;65.30;;;;;;5049767;28;20053;-69
2023/07/20 12:05:24;;;;;;;4.85;0.90;;;24.40;65.10;;;;;;5050475;28;20486;-69
2023/07/20 12:07:51;;;;;;;3.92;2.05;;;24.40;64.40;;;;;;5051307;28;20033;-71
2023/07/20 12:10:28;;;;;;;2.03;1.20;;;24.50;65.30;;;;;;5050095;28;20040;-69
2023/07/20 12:12:54;;;;;;;2.22;0.70;;;24.60;65.50;;;;;;5049933;28;20032;-70
2023/07/20 12:15:21;;;;;;;3.63;0.50;;;24.60;64.30;;;;;;5049991;28;20029;-70
2023/07/20 12:17:51;;;;;;;1.47;0.80;;;24.60;64.60;;;;;;5050832;28;20029;-70
2023/07/20 12:20:26;;;;;;;2.55;0.60;;;24.40;63.60;;;;;;5051437;28;20781;-71
2023/07/20 12:22:52;;;;;;;0.73;0.50;;;24.50;63.40;;;;;;5049710;28;20037;-70
2023/07/20 12:25:19;;;;;;;1.88;0.68;;;24.20;63.30;;;;;;5049906;28;20537;-72
2023/07/20 12:27:46;;;;;;;2.05;0.68;;;24.20;62.70;;;;;;5050892;28;20043;-71
2023/07/20 12:30:13;;;;;;;3.23;0.50;;;24.00;60.60;;;;;;5051336;28;20055;-70
2023/07/20 12:32:39;;;;;;;3.55;0.75;;;23.90;61.40;;;;;;5066253;28;20053;-71
2023/07/20 12:35:06;;;;;;;1.63;0.88;;;23.80;62.80;;;;;;5050818;28;20029;-70
2023/07/20 12:37:31;;;;;;;2.40;0.50;;;23.80;64.20;;;;;;5050569;28;20091;-70
2023/07/20 12:39:57;;;;;;;4.85;0.60;;;23.80;65.30;;;;;;5050860;28;20493;-70
2023/07/20 12:42:23;;;;;;;4.20;0.90;;;24.00;65.10;;;;;;5050532;28;20059;-71
2023/07/20 12:44:50;;;;;;;10.35;3.60;;;24.00;65.10;;;;;;5050667;28;20029;-70
2023/07/20 12:47:18;;;;;;;4.10;1.33;;;24.10;65.40;;;;;;5051084;28;20029;-70
2023/07/20 12:49:45;;;;;;;0.57;0.57;;;24.30;66.40;;;;;;5054727;28;20025;-70